sensor_id;sensor_type;location;lat;lon;timestamp;P1;durP1;ratioP1;P2;durP2;ratioP2
85243;SDS011;75643;56.928;41.094;2024-01-30T00:02:03;6.35;;;2.88;;
85243;SDS011;75643;56.928;41.094;2024-01-30T00:04:29;4.55;;;2.55;;
85243;SDS011;75643;56.928;41.094;2024-01-30T00:06:55;5.50;;;2.65;;
85243;SDS011;75643;56.928;41.094;2024-01-30T00:09:23;4.53;;;2.40;;
85243;SDS011;75643;56.928;41.094;2024-01-30T00:11:49;6.15;;;2.90;;
85243;SDS011;75643;56.928;41.094;2024-01-30T00:14:16;6.40;;;3.00;;
85243;SDS011;75643;56.928;41.094;2024-01-30T00:16:43;4.43;;;2.28;;
85243;SDS011;75643;56.928;41.094;2024-01-30T00:19:10;6.40;;;3.05;;
85243;SDS011;75643;56.928;41.094;2024-01-30T00:21:37;5.30;;;2.35;;
85243;SDS011;75643;56.928;41.094;2024-01-30T00:24:04;5.15;;;2.50;;
85243;SDS011;75643;56.928;41.094;2024-01-30T00:26:30;4.53;;;2.55;;
85243;SDS011;75643;56.928;41.094;2024-01-30T00:28:56;8.82;;;3.50;;
85243;SDS011;75643;56.928;41.094;2024-01-30T00:31:22;5.10;;;2.67;;
85243;SDS011;75643;56.928;41.094;2024-01-30T00:33:48;4.90;;;2.78;;
85243;SDS011;75643;56.928;41.094;2024-01-30T00:36:14;4.70;;;2.17;;
85243;SDS011;75643;56.928;41.094;2024-01-30T00:38:40;5.80;;;2.63;;
85243;SDS011;75643;56.928;41.094;2024-01-30T00:41:08;4.13;;;2.22;;
85243;SDS011;75643;56.928;41.094;2024-01-30T00:43:35;5.93;;;2.88;;
85243;SDS011;75643;56.928;41.094;2024-01-30T00:46:03;4.28;;;2.25;;
85243;SDS011;75643;56.928;41.094;2024-01-30T00:48:29;4.70;;;2.60;;
85243;SDS011;75643;56.928;41.094;2024-01-30T00:50:55;2.13;;;1.50;;
85243;SDS011;75643;56.928;41.094;2024-01-30T00:53:21;5.63;;;2.75;;
85243;SDS011;75643;56.928;41.094;2024-01-30T00:55:50;4.85;;;2.50;;
85243;SDS011;75643;56.928;41.094;2024-01-30T00:58:16;4.45;;;2.58;;
85243;SDS011;75643;56.928;41.094;2024-01-30T01:00:48;5.18;;;3.00;;
85243;SDS011;75643;56.928;41.094;2024-01-30T01:03:14;5.63;;;1.80;;
85243;SDS011;75643;56.928;41.094;2024-01-30T01:05:43;4.95;;;2.95;;
85243;SDS011;75643;56.928;41.094;2024-01-30T01:08:12;5.68;;;2.67;;
85243;SDS011;75643;56.928;41.094;2024-01-30T01:10:40;6.05;;;2.30;;
85243;SDS011;75643;56.928;41.094;2024-01-30T01:13:06;5.35;;;2.90;;
85243;SDS011;75643;56.928;41.094;2024-01-30T01:15:32;4.50;;;2.67;;
85243;SDS011;75643;56.928;41.094;2024-01-30T01:18:00;5.88;;;2.95;;
85243;SDS011;75643;56.928;41.094;2024-01-30T01:20:27;4.97;;;2.88;;
85243;SDS011;75643;56.928;41.094;2024-01-30T01:22:54;4.43;;;2.85;;
85243;SDS011;75643;56.928;41.094;2024-01-30T01:25:22;6.38;;;2.92;;
85243;SDS011;75643;56.928;41.094;2024-01-30T01:27:48;4.60;;;2.30;;
85243;SDS011;75643;56.928;41.094;2024-01-30T01:30:17;5.70;;;2.53;;
85243;SDS011;75643;56.928;41.094;2024-01-30T01:32:51;5.13;;;2.50;;
85243;SDS011;75643;56.928;41.094;2024-01-30T01:35:26;5.97;;;2.80;;
85243;SDS011;75643;56.928;41.094;2024-01-30T01:37:53;5.45;;;2.67;;
85243;SDS011;75643;56.928;41.094;2024-01-30T01:40:25;5.70;;;2.78;;
85243;SDS011;75643;56.928;41.094;2024-01-30T01:42:53;3.63;;;2.15;;
85243;SDS011;75643;56.928;41.094;2024-01-30T01:45:22;3.85;;;2.45;;
85243;SDS011;75643;56.928;41.094;2024-01-30T01:47:51;5.07;;;2.53;;
85243;SDS011;75643;56.928;41.094;2024-01-30T01:50:18;5.90;;;2.50;;
85243;SDS011;75643;56.928;41.094;2024-01-30T01:52:49;5.90;;;2.55;;
85243;SDS011;75643;56.928;41.094;2024-01-30T01:55:16;4.65;;;2.30;;
85243;SDS011;75643;56.928;41.094;2024-01-30T01:57:47;6.07;;;2.85;;
85243;SDS011;75643;56.928;41.094;2024-01-30T02:00:16;4.97;;;2.63;;
85243;SDS011;75643;56.928;41.094;2024-01-30T02:02:45;5.05;;;2.80;;
85243;SDS011;75643;56.928;41.094;2024-01-30T02:05:14;6.18;;;2.65;;
85243;SDS011;75643;56.928;41.094;2024-01-30T02:07:41;4.97;;;2.60;;
85243;SDS011;75643;56.928;41.094;2024-01-30T02:10:08;6.28;;;2.95;;
85243;SDS011;75643;56.928;41.094;2024-01-30T02:12:37;4.13;;;3.03;;
85243;SDS011;75643;56.928;41.094;2024-01-30T02:15:07;7.65;;;2.50;;
85243;SDS011;75643;56.928;41.094;2024-01-30T02:17:35;6.15;;;3.00;;
85243;SDS011;75643;56.928;41.094;2024-01-30T02:20:01;6.38;;;3.10;;
85243;SDS011;75643;56.928;41.094;2024-01-30T02:22:30;3.17;;;2.17;;
85243;SDS011;75643;56.928;41.094;2024-01-30T02:25:00;5.13;;;2.22;;
85243;SDS011;75643;56.928;41.094;2024-01-30T02:27:26;5.13;;;2.13;;
85243;SDS011;75643;56.928;41.094;2024-01-30T02:29:53;6.30;;;2.67;;
85243;SDS011;75643;56.928;41.094;2024-01-30T02:32:22;5.00;;;2.53;;
85243;SDS011;75643;56.928;41.094;2024-01-30T02:34:48;5.75;;;2.40;;
85243;SDS011;75643;56.928;41.094;2024-01-30T02:37:16;5.00;;;2.35;;
85243;SDS011;75643;56.928;41.094;2024-01-30T02:39:45;5.32;;;2.67;;
85243;SDS011;75643;56.928;41.094;2024-01-30T02:42:11;3.95;;;2.60;;
85243;SDS011;75643;56.928;41.094;2024-01-30T02:44:43;4.95;;;2.45;;
85243;SDS011;75643;56.928;41.094;2024-01-30T02:47:10;5.10;;;2.63;;
85243;SDS011;75643;56.928;41.094;2024-01-30T02:49:38;5.05;;;2.28;;
85243;SDS011;75643;56.928;41.094;2024-01-30T02:52:04;3.20;;;2.03;;
85243;SDS011;75643;56.928;41.094;2024-01-30T02:54:31;3.75;;;2.22;;
85243;SDS011;75643;56.928;41.094;2024-01-30T02:56:57;5.95;;;3.25;;
85243;SDS011;75643;56.928;41.094;2024-01-30T02:59:23;6.30;;;3.08;;
85243;SDS011;75643;56.928;41.094;2024-01-30T03:01:49;5.05;;;2.90;;
85243;SDS011;75643;56.928;41.094;2024-01-30T03:04:16;4.53;;;2.97;;
85243;SDS011;75643;56.928;41.094;2024-01-30T03:06:46;8.27;;;3.25;;
85243;SDS011;75643;56.928;41.094;2024-01-30T03:09:16;6.00;;;3.40;;
85243;SDS011;75643;56.928;41.094;2024-01-30T03:11:42;7.18;;;3.20;;
85243;SDS011;75643;56.928;41.094;2024-01-30T03:14:09;5.53;;;3.78;;
85243;SDS011;75643;56.928;41.094;2024-01-30T03:16:37;7.65;;;3.70;;
85243;SDS011;75643;56.928;41.094;2024-01-30T03:19:05;8.15;;;4.20;;
85243;SDS011;75643;56.928;41.094;2024-01-30T03:21:33;7.50;;;4.32;;
85243;SDS011;75643;56.928;41.094;2024-01-30T03:23:59;8.02;;;4.82;;
85243;SDS011;75643;56.928;41.094;2024-01-30T03:26:26;8.13;;;5.15;;
85243;SDS011;75643;56.928;41.094;2024-01-30T03:28:52;14.05;;;5.97;;
85243;SDS011;75643;56.928;41.094;2024-01-30T03:31:18;14.55;;;6.25;;
85243;SDS011;75643;56.928;41.094;2024-01-30T03:33:44;15.65;;;7.75;;
85243;SDS011;75643;56.928;41.094;2024-01-30T03:36:10;14.20;;;7.68;;
85243;SDS011;75643;56.928;41.094;2024-01-30T03:38:38;16.40;;;8.63;;
85243;SDS011;75643;56.928;41.094;2024-01-30T03:41:07;16.85;;;8.30;;
85243;SDS011;75643;56.928;41.094;2024-01-30T03:45:59;18.10;;;9.55;;
85243;SDS011;75643;56.928;41.094;2024-01-30T03:48:30;16.73;;;9.73;;
85243;SDS011;75643;56.928;41.094;2024-01-30T03:50:56;25.13;;;10.57;;
85243;SDS011;75643;56.928;41.094;2024-01-30T03:53:22;17.88;;;10.25;;
85243;SDS011;75643;56.928;41.094;2024-01-30T03:55:49;21.33;;;12.02;;
85243;SDS011;75643;56.928;41.094;2024-01-30T03:58:15;20.33;;;11.13;;
85243;SDS011;75643;56.928;41.094;2024-01-30T04:00:41;22.50;;;9.10;;
85243;SDS011;75643;56.928;41.094;2024-01-30T04:03:11;20.20;;;10.25;;
85243;SDS011;75643;56.928;41.094;2024-01-30T04:05:38;20.20;;;10.57;;
85243;SDS011;75643;56.928;41.094;2024-01-30T04:08:04;15.63;;;8.65;;
85243;SDS011;75643;56.928;41.094;2024-01-30T04:10:31;19.75;;;9.68;;
85243;SDS011;75643;56.928;41.094;2024-01-30T04:12:57;18.85;;;9.05;;
85243;SDS011;75643;56.928;41.094;2024-01-30T04:15:23;16.17;;;9.43;;
85243;SDS011;75643;56.928;41.094;2024-01-30T04:17:49;16.75;;;10.93;;
85243;SDS011;75643;56.928;41.094;2024-01-30T04:20:15;18.00;;;8.98;;
85243;SDS011;75643;56.928;41.094;2024-01-30T04:22:45;15.95;;;9.38;;
85243;SDS011;75643;56.928;41.094;2024-01-30T04:25:12;19.60;;;9.23;;
85243;SDS011;75643;56.928;41.094;2024-01-30T04:27:39;18.17;;;9.98;;
85243;SDS011;75643;56.928;41.094;2024-01-30T04:30:05;22.05;;;9.98;;
85243;SDS011;75643;56.928;41.094;2024-01-30T04:32:33;19.48;;;9.15;;
85243;SDS011;75643;56.928;41.094;2024-01-30T04:34:59;18.55;;;9.55;;
85243;SDS011;75643;56.928;41.094;2024-01-30T04:37:25;19.02;;;9.25;;
85243;SDS011;75643;56.928;41.094;2024-01-30T04:39:51;19.60;;;9.88;;
85243;SDS011;75643;56.928;41.094;2024-01-30T04:42:17;21.17;;;8.95;;
85243;SDS011;75643;56.928;41.094;2024-01-30T04:44:44;14.68;;;9.13;;
85243;SDS011;75643;56.928;41.094;2024-01-30T04:47:10;15.57;;;8.68;;
85243;SDS011;75643;56.928;41.094;2024-01-30T04:49:40;18.88;;;8.40;;
85243;SDS011;75643;56.928;41.094;2024-01-30T04:52:07;15.98;;;8.35;;
85243;SDS011;75643;56.928;41.094;2024-01-30T04:54:34;17.48;;;8.05;;
85243;SDS011;75643;56.928;41.094;2024-01-30T04:57:01;12.18;;;5.95;;
85243;SDS011;75643;56.928;41.094;2024-01-30T04:59:28;10.80;;;6.18;;
85243;SDS011;75643;56.928;41.094;2024-01-30T05:01:56;8.00;;;5.00;;
85243;SDS011;75643;56.928;41.094;2024-01-30T05:04:22;11.23;;;5.38;;
85243;SDS011;75643;56.928;41.094;2024-01-30T05:06:51;9.45;;;5.15;;
85243;SDS011;75643;56.928;41.094;2024-01-30T05:09:17;8.90;;;4.40;;
85243;SDS011;75643;56.928;41.094;2024-01-30T05:11:44;8.68;;;4.68;;
85243;SDS011;75643;56.928;41.094;2024-01-30T05:14:10;8.20;;;4.50;;
85243;SDS011;75643;56.928;41.094;2024-01-30T05:16:37;8.57;;;3.90;;
85243;SDS011;75643;56.928;41.094;2024-01-30T05:19:04;8.20;;;4.00;;
85243;SDS011;75643;56.928;41.094;2024-01-30T05:21:30;7.53;;;4.03;;
85243;SDS011;75643;56.928;41.094;2024-01-30T05:23:59;7.80;;;3.97;;
85243;SDS011;75643;56.928;41.094;2024-01-30T05:26:25;8.82;;;3.65;;
85243;SDS011;75643;56.928;41.094;2024-01-30T05:28:52;7.95;;;4.13;;
85243;SDS011;75643;56.928;41.094;2024-01-30T05:31:18;7.85;;;3.78;;
85243;SDS011;75643;56.928;41.094;2024-01-30T05:33:44;8.90;;;4.22;;
85243;SDS011;75643;56.928;41.094;2024-01-30T05:36:14;5.70;;;3.50;;
85243;SDS011;75643;56.928;41.094;2024-01-30T05:38:40;8.60;;;3.65;;
85243;SDS011;75643;56.928;41.094;2024-01-30T05:41:06;7.97;;;3.70;;
85243;SDS011;75643;56.928;41.094;2024-01-30T05:43:33;6.80;;;3.72;;
85243;SDS011;75643;56.928;41.094;2024-01-30T05:46:00;6.75;;;3.45;;
85243;SDS011;75643;56.928;41.094;2024-01-30T05:48:26;6.63;;;3.40;;
85243;SDS011;75643;56.928;41.094;2024-01-30T05:50:52;8.23;;;3.75;;
85243;SDS011;75643;56.928;41.094;2024-01-30T05:53:18;10.40;;;4.18;;
85243;SDS011;75643;56.928;41.094;2024-01-30T05:55:45;7.03;;;4.00;;
85243;SDS011;75643;56.928;41.094;2024-01-30T05:58:12;9.70;;;4.25;;
85243;SDS011;75643;56.928;41.094;2024-01-30T06:00:38;7.47;;;3.85;;
85243;SDS011;75643;56.928;41.094;2024-01-30T06:03:04;8.65;;;4.00;;
85243;SDS011;75643;56.928;41.094;2024-01-30T06:05:31;10.70;;;3.90;;
85243;SDS011;75643;56.928;41.094;2024-01-30T06:07:57;9.75;;;4.43;;
85243;SDS011;75643;56.928;41.094;2024-01-30T06:10:23;11.35;;;4.25;;
85243;SDS011;75643;56.928;41.094;2024-01-30T06:12:49;13.25;;;4.70;;
85243;SDS011;75643;56.928;41.094;2024-01-30T06:15:15;8.45;;;3.60;;
85243;SDS011;75643;56.928;41.094;2024-01-30T06:17:41;10.65;;;4.32;;
85243;SDS011;75643;56.928;41.094;2024-01-30T06:20:07;9.93;;;4.90;;
85243;SDS011;75643;56.928;41.094;2024-01-30T06:22:34;12.35;;;5.05;;
85243;SDS011;75643;56.928;41.094;2024-01-30T06:25:01;9.00;;;4.22;;
85243;SDS011;75643;56.928;41.094;2024-01-30T06:27:27;8.02;;;4.32;;
85243;SDS011;75643;56.928;41.094;2024-01-30T06:29:53;10.20;;;4.70;;
85243;SDS011;75643;56.928;41.094;2024-01-30T06:32:19;11.65;;;4.60;;
85243;SDS011;75643;56.928;41.094;2024-01-30T06:34:46;10.93;;;5.30;;
85243;SDS011;75643;56.928;41.094;2024-01-30T06:37:15;7.68;;;4.15;;
85243;SDS011;75643;56.928;41.094;2024-01-30T06:39:42;11.82;;;4.88;;
85243;SDS011;75643;56.928;41.094;2024-01-30T06:42:08;10.02;;;4.10;;
85243;SDS011;75643;56.928;41.094;2024-01-30T06:44:34;8.02;;;3.90;;
85243;SDS011;75643;56.928;41.094;2024-01-30T06:47:01;7.88;;;3.75;;
85243;SDS011;75643;56.928;41.094;2024-01-30T06:49:29;9.50;;;4.22;;
85243;SDS011;75643;56.928;41.094;2024-01-30T06:51:56;8.82;;;4.03;;
85243;SDS011;75643;56.928;41.094;2024-01-30T06:54:22;10.02;;;4.30;;
85243;SDS011;75643;56.928;41.094;2024-01-30T06:56:49;9.32;;;4.40;;
85243;SDS011;75643;56.928;41.094;2024-01-30T06:59:15;10.88;;;4.07;;
85243;SDS011;75643;56.928;41.094;2024-01-30T07:01:43;9.25;;;4.28;;
85243;SDS011;75643;56.928;41.094;2024-01-30T07:04:10;8.23;;;3.88;;
85243;SDS011;75643;56.928;41.094;2024-01-30T07:06:36;11.57;;;4.43;;
85243;SDS011;75643;56.928;41.094;2024-01-30T07:09:02;8.05;;;4.28;;
85243;SDS011;75643;56.928;41.094;2024-01-30T07:11:33;7.20;;;3.92;;
85243;SDS011;75643;56.928;41.094;2024-01-30T07:14:02;8.85;;;4.30;;
85243;SDS011;75643;56.928;41.094;2024-01-30T07:16:30;7.03;;;4.10;;
85243;SDS011;75643;56.928;41.094;2024-01-30T07:18:56;9.93;;;4.20;;
85243;SDS011;75643;56.928;41.094;2024-01-30T07:21:22;11.73;;;4.70;;
85243;SDS011;75643;56.928;41.094;2024-01-30T07:23:55;10.30;;;4.25;;
85243;SDS011;75643;56.928;41.094;2024-01-30T07:26:24;7.90;;;3.90;;
85243;SDS011;75643;56.928;41.094;2024-01-30T07:34:49;7.80;;;3.80;;
85243;SDS011;75643;56.928;41.094;2024-01-30T07:49:23;8.43;;;4.03;;
85243;SDS011;75643;56.928;41.094;2024-01-30T07:58:17;10.77;;;4.15;;
85243;SDS011;75643;56.928;41.094;2024-01-30T08:00:46;9.80;;;3.88;;
85243;SDS011;75643;56.928;41.094;2024-01-30T08:03:13;8.13;;;3.92;;
85243;SDS011;75643;56.928;41.094;2024-01-30T08:05:42;7.63;;;3.55;;
85243;SDS011;75643;56.928;41.094;2024-01-30T08:08:08;27.02;;;10.50;;
85243;SDS011;75643;56.928;41.094;2024-01-30T08:10:34;5.93;;;3.58;;
85243;SDS011;75643;56.928;41.094;2024-01-30T08:13:01;8.07;;;4.10;;
85243;SDS011;75643;56.928;41.094;2024-01-30T08:15:30;6.65;;;3.80;;
85243;SDS011;75643;56.928;41.094;2024-01-30T08:17:56;5.38;;;3.33;;
85243;SDS011;75643;56.928;41.094;2024-01-30T08:39:08;7.35;;;3.38;;
85243;SDS011;75643;56.928;41.094;2024-01-30T08:41:35;9.27;;;4.25;;
85243;SDS011;75643;56.928;41.094;2024-01-30T08:44:01;8.15;;;3.75;;
85243;SDS011;75643;56.928;41.094;2024-01-30T08:46:33;6.35;;;3.80;;
85243;SDS011;75643;56.928;41.094;2024-01-30T08:48:59;13.80;;;4.18;;
85243;SDS011;75643;56.928;41.094;2024-01-30T08:51:26;11.10;;;3.97;;
85243;SDS011;75643;56.928;41.094;2024-01-30T08:53:52;6.35;;;3.58;;
85243;SDS011;75643;56.928;41.094;2024-01-30T08:56:20;9.65;;;3.83;;
85243;SDS011;75643;56.928;41.094;2024-01-30T08:58:49;8.30;;;4.32;;
85243;SDS011;75643;56.928;41.094;2024-01-30T09:01:15;9.63;;;4.10;;
85243;SDS011;75643;56.928;41.094;2024-01-30T09:03:41;9.52;;;3.50;;
85243;SDS011;75643;56.928;41.094;2024-01-30T09:06:09;8.57;;;4.07;;
85243;SDS011;75643;56.928;41.094;2024-01-30T09:08:35;7.63;;;3.67;;
85243;SDS011;75643;56.928;41.094;2024-01-30T09:11:07;8.52;;;4.13;;
85243;SDS011;75643;56.928;41.094;2024-01-30T09:13:38;8.50;;;3.60;;
85243;SDS011;75643;56.928;41.094;2024-01-30T09:16:05;11.20;;;3.80;;
85243;SDS011;75643;56.928;41.094;2024-01-30T09:18:32;9.27;;;4.07;;
85243;SDS011;75643;56.928;41.094;2024-01-30T09:20:59;11.40;;;4.07;;
85243;SDS011;75643;56.928;41.094;2024-01-30T09:23:27;9.73;;;3.90;;
85243;SDS011;75643;56.928;41.094;2024-01-30T09:25:53;7.55;;;3.70;;
85243;SDS011;75643;56.928;41.094;2024-01-30T09:28:20;7.75;;;3.88;;
85243;SDS011;75643;56.928;41.094;2024-01-30T09:30:50;8.07;;;3.28;;
85243;SDS011;75643;56.928;41.094;2024-01-30T09:45:13;5.32;;;3.35;;
85243;SDS011;75643;56.928;41.094;2024-01-30T09:51:05;7.18;;;4.05;;
85243;SDS011;75643;56.928;41.094;2024-01-30T09:56:23;7.63;;;3.03;;
85243;SDS011;75643;56.928;41.094;2024-01-30T10:01:48;7.80;;;3.28;;
85243;SDS011;75643;56.928;41.094;2024-01-30T10:07:25;7.55;;;3.42;;
85243;SDS011;75643;56.928;41.094;2024-01-30T10:12:54;6.65;;;3.55;;
85243;SDS011;75643;56.928;41.094;2024-01-30T10:15:22;8.93;;;3.53;;
85243;SDS011;75643;56.928;41.094;2024-01-30T10:17:50;9.95;;;3.85;;
85243;SDS011;75643;56.928;41.094;2024-01-30T10:20:16;7.63;;;2.78;;
85243;SDS011;75643;56.928;41.094;2024-01-30T10:22:44;6.18;;;3.40;;
85243;SDS011;75643;56.928;41.094;2024-01-30T10:25:12;5.25;;;3.03;;
85243;SDS011;75643;56.928;41.094;2024-01-30T10:27:42;10.23;;;4.13;;
85243;SDS011;75643;56.928;41.094;2024-01-30T10:30:08;7.35;;;3.05;;
85243;SDS011;75643;56.928;41.094;2024-01-30T10:32:35;6.10;;;2.92;;
85243;SDS011;75643;56.928;41.094;2024-01-30T10:35:02;8.02;;;3.00;;
85243;SDS011;75643;56.928;41.094;2024-01-30T10:37:29;5.53;;;2.78;;
85243;SDS011;75643;56.928;41.094;2024-01-30T10:39:57;7.57;;;3.53;;
85243;SDS011;75643;56.928;41.094;2024-01-30T10:42:36;6.38;;;2.55;;
85243;SDS011;75643;56.928;41.094;2024-01-30T10:45:09;6.47;;;3.15;;
85243;SDS011;75643;56.928;41.094;2024-01-30T10:50:19;6.28;;;3.25;;
85243;SDS011;75643;56.928;41.094;2024-01-30T10:52:47;7.13;;;3.15;;
85243;SDS011;75643;56.928;41.094;2024-01-30T10:55:15;8.55;;;3.40;;
85243;SDS011;75643;56.928;41.094;2024-01-30T10:57:50;7.35;;;3.08;;
85243;SDS011;75643;56.928;41.094;2024-01-30T11:03:08;6.55;;;3.00;;
85243;SDS011;75643;56.928;41.094;2024-01-30T11:09:02;6.15;;;2.72;;
85243;SDS011;75643;56.928;41.094;2024-01-30T11:11:30;5.35;;;3.13;;
85243;SDS011;75643;56.928;41.094;2024-01-30T11:16:52;8.00;;;3.75;;
85243;SDS011;75643;56.928;41.094;2024-01-30T11:28:17;7.55;;;3.40;;
85243;SDS011;75643;56.928;41.094;2024-01-30T11:30:44;4.47;;;3.10;;
85243;SDS011;75643;56.928;41.094;2024-01-30T11:33:13;8.70;;;3.30;;
85243;SDS011;75643;56.928;41.094;2024-01-30T11:35:52;8.63;;;4.10;;
85243;SDS011;75643;56.928;41.094;2024-01-30T11:38:19;6.32;;;3.08;;
85243;SDS011;75643;56.928;41.094;2024-01-30T11:43:57;8.07;;;4.05;;
85243;SDS011;75643;56.928;41.094;2024-01-30T11:49:16;8.45;;;3.60;;
85243;SDS011;75643;56.928;41.094;2024-01-30T11:51:46;7.78;;;3.42;;
85243;SDS011;75643;56.928;41.094;2024-01-30T11:56:44;8.15;;;3.90;;
85243;SDS011;75643;56.928;41.094;2024-01-30T11:59:13;11.35;;;4.72;;
85243;SDS011;75643;56.928;41.094;2024-01-30T12:01:40;9.35;;;4.88;;
85243;SDS011;75643;56.928;41.094;2024-01-30T12:06:36;11.75;;;4.65;;
85243;SDS011;75643;56.928;41.094;2024-01-30T12:09:02;11.68;;;4.40;;
85243;SDS011;75643;56.928;41.094;2024-01-30T12:11:46;10.70;;;3.78;;
85243;SDS011;75643;56.928;41.094;2024-01-30T12:14:13;8.60;;;3.88;;
85243;SDS011;75643;56.928;41.094;2024-01-30T12:16:40;7.30;;;4.20;;
85243;SDS011;75643;56.928;41.094;2024-01-30T12:19:09;7.38;;;3.78;;
85243;SDS011;75643;56.928;41.094;2024-01-30T12:21:37;9.90;;;4.20;;
85243;SDS011;75643;56.928;41.094;2024-01-30T12:24:04;8.40;;;4.03;;
85243;SDS011;75643;56.928;41.094;2024-01-30T12:26:32;6.72;;;3.78;;
85243;SDS011;75643;56.928;41.094;2024-01-30T12:28:59;9.23;;;3.90;;
85243;SDS011;75643;56.928;41.094;2024-01-30T12:31:31;7.88;;;3.78;;
85243;SDS011;75643;56.928;41.094;2024-01-30T12:34:01;9.40;;;3.80;;
85243;SDS011;75643;56.928;41.094;2024-01-30T12:36:28;10.18;;;3.72;;
85243;SDS011;75643;56.928;41.094;2024-01-30T12:38:56;11.05;;;4.18;;
85243;SDS011;75643;56.928;41.094;2024-01-30T12:41:23;11.68;;;5.15;;
85243;SDS011;75643;56.928;41.094;2024-01-30T12:43:53;10.15;;;4.13;;
85243;SDS011;75643;56.928;41.094;2024-01-30T12:46:20;10.50;;;4.95;;
85243;SDS011;75643;56.928;41.094;2024-01-30T12:48:47;7.45;;;3.83;;
85243;SDS011;75643;56.928;41.094;2024-01-30T12:51:13;11.32;;;4.45;;
85243;SDS011;75643;56.928;41.094;2024-01-30T12:53:39;8.23;;;3.75;;
85243;SDS011;75643;56.928;41.094;2024-01-30T12:56:05;7.53;;;3.90;;
85243;SDS011;75643;56.928;41.094;2024-01-30T12:58:35;11.77;;;3.90;;
85243;SDS011;75643;56.928;41.094;2024-01-30T13:01:03;11.15;;;4.05;;
85243;SDS011;75643;56.928;41.094;2024-01-30T13:03:29;8.60;;;3.60;;
85243;SDS011;75643;56.928;41.094;2024-01-30T13:05:56;7.50;;;3.85;;
85243;SDS011;75643;56.928;41.094;2024-01-30T13:08:22;8.50;;;3.63;;
85243;SDS011;75643;56.928;41.094;2024-01-30T13:10:50;10.40;;;4.10;;
85243;SDS011;75643;56.928;41.094;2024-01-30T13:13:16;8.75;;;3.65;;
85243;SDS011;75643;56.928;41.094;2024-01-30T13:18:49;8.85;;;3.65;;
85243;SDS011;75643;56.928;41.094;2024-01-30T13:21:15;8.38;;;3.75;;
85243;SDS011;75643;56.928;41.094;2024-01-30T13:23:42;7.07;;;3.75;;
85243;SDS011;75643;56.928;41.094;2024-01-30T13:26:09;13.40;;;4.20;;
85243;SDS011;75643;56.928;41.094;2024-01-30T13:28:38;10.98;;;5.18;;
85243;SDS011;75643;56.928;41.094;2024-01-30T13:31:04;13.32;;;5.45;;
85243;SDS011;75643;56.928;41.094;2024-01-30T13:36:00;10.48;;;5.25;;
85243;SDS011;75643;56.928;41.094;2024-01-30T13:50:06;10.73;;;4.93;;
85243;SDS011;75643;56.928;41.094;2024-01-30T13:52:33;14.02;;;5.53;;
85243;SDS011;75643;56.928;41.094;2024-01-30T13:54:59;12.30;;;5.03;;
85243;SDS011;75643;56.928;41.094;2024-01-30T13:57:26;12.70;;;5.30;;
85243;SDS011;75643;56.928;41.094;2024-01-30T13:59:52;11.75;;;5.78;;
85243;SDS011;75643;56.928;41.094;2024-01-30T14:05:21;18.98;;;8.73;;
85243;SDS011;75643;56.928;41.094;2024-01-30T14:07:50;28.80;;;12.45;;
85243;SDS011;75643;56.928;41.094;2024-01-30T14:21:39;36.67;;;16.38;;
85243;SDS011;75643;56.928;41.094;2024-01-30T14:26:36;34.47;;;13.30;;
85243;SDS011;75643;56.928;41.094;2024-01-30T14:29:03;32.22;;;13.23;;
85243;SDS011;75643;56.928;41.094;2024-01-30T14:31:30;26.52;;;11.80;;
85243;SDS011;75643;56.928;41.094;2024-01-30T14:33:58;27.33;;;11.50;;
85243;SDS011;75643;56.928;41.094;2024-01-30T14:36:25;20.08;;;10.82;;
85243;SDS011;75643;56.928;41.094;2024-01-30T14:38:56;24.15;;;10.55;;
85243;SDS011;75643;56.928;41.094;2024-01-30T14:41:23;23.63;;;10.85;;
85243;SDS011;75643;56.928;41.094;2024-01-30T14:43:55;22.85;;;10.88;;
85243;SDS011;75643;56.928;41.094;2024-01-30T14:46:21;27.00;;;13.40;;
85243;SDS011;75643;56.928;41.094;2024-01-30T14:48:48;34.15;;;14.27;;
85243;SDS011;75643;56.928;41.094;2024-01-30T14:51:20;28.77;;;13.18;;
85243;SDS011;75643;56.928;41.094;2024-01-30T14:53:49;28.50;;;12.80;;
85243;SDS011;75643;56.928;41.094;2024-01-30T14:56:15;26.58;;;11.80;;
85243;SDS011;75643;56.928;41.094;2024-01-30T14:58:42;25.73;;;10.80;;
85243;SDS011;75643;56.928;41.094;2024-01-30T15:01:11;19.55;;;10.20;;
85243;SDS011;75643;56.928;41.094;2024-01-30T15:03:37;25.90;;;11.07;;
85243;SDS011;75643;56.928;41.094;2024-01-30T15:06:08;22.95;;;10.52;;
85243;SDS011;75643;56.928;41.094;2024-01-30T15:08:35;24.55;;;9.98;;
85243;SDS011;75643;56.928;41.094;2024-01-30T15:11:01;26.70;;;10.77;;
85243;SDS011;75643;56.928;41.094;2024-01-30T15:13:30;21.38;;;9.43;;
85243;SDS011;75643;56.928;41.094;2024-01-30T15:18:28;19.75;;;8.82;;
85243;SDS011;75643;56.928;41.094;2024-01-30T15:20:57;22.15;;;10.32;;
85243;SDS011;75643;56.928;41.094;2024-01-30T15:23:25;25.92;;;10.73;;
85243;SDS011;75643;56.928;41.094;2024-01-30T15:25:55;24.45;;;10.85;;
85243;SDS011;75643;56.928;41.094;2024-01-30T15:28:33;26.55;;;10.75;;
85243;SDS011;75643;56.928;41.094;2024-01-30T15:31:02;25.13;;;10.40;;
85243;SDS011;75643;56.928;41.094;2024-01-30T15:33:29;20.30;;;10.52;;
85243;SDS011;75643;56.928;41.094;2024-01-30T15:36:05;21.60;;;9.75;;
85243;SDS011;75643;56.928;41.094;2024-01-30T15:38:32;24.15;;;9.55;;
85243;SDS011;75643;56.928;41.094;2024-01-30T15:41:11;22.42;;;10.80;;
85243;SDS011;75643;56.928;41.094;2024-01-30T15:44:00;24.63;;;10.27;;
85243;SDS011;75643;56.928;41.094;2024-01-30T15:46:35;23.08;;;10.40;;
85243;SDS011;75643;56.928;41.094;2024-01-30T15:49:23;26.17;;;10.13;;
85243;SDS011;75643;56.928;41.094;2024-01-30T15:51:58;23.15;;;9.63;;
85243;SDS011;75643;56.928;41.094;2024-01-30T15:54:30;23.23;;;10.52;;
85243;SDS011;75643;56.928;41.094;2024-01-30T15:57:09;25.02;;;11.52;;
85243;SDS011;75643;56.928;41.094;2024-01-30T15:59:40;25.75;;;9.43;;
85243;SDS011;75643;56.928;41.094;2024-01-30T16:02:19;20.75;;;9.88;;
85243;SDS011;75643;56.928;41.094;2024-01-30T16:04:48;20.75;;;9.40;;
85243;SDS011;75643;56.928;41.094;2024-01-30T16:10:39;20.80;;;9.55;;
85243;SDS011;75643;56.928;41.094;2024-01-30T16:13:05;18.27;;;9.02;;
85243;SDS011;75643;56.928;41.094;2024-01-30T16:15:38;22.13;;;8.25;;
85243;SDS011;75643;56.928;41.094;2024-01-30T16:18:07;18.55;;;8.88;;
85243;SDS011;75643;56.928;41.094;2024-01-30T16:20:33;21.00;;;9.25;;
85243;SDS011;75643;56.928;41.094;2024-01-30T16:23:00;21.15;;;9.52;;
85243;SDS011;75643;56.928;41.094;2024-01-30T16:25:30;25.13;;;10.82;;
85243;SDS011;75643;56.928;41.094;2024-01-30T16:27:56;28.88;;;10.68;;
85243;SDS011;75643;56.928;41.094;2024-01-30T16:30:27;28.55;;;10.60;;
85243;SDS011;75643;56.928;41.094;2024-01-30T16:32:53;31.13;;;12.30;;
85243;SDS011;75643;56.928;41.094;2024-01-30T16:35:22;24.90;;;11.30;;
85243;SDS011;75643;56.928;41.094;2024-01-30T16:37:52;24.83;;;11.80;;
85243;SDS011;75643;56.928;41.094;2024-01-30T16:47:33;28.13;;;11.85;;
85243;SDS011;75643;56.928;41.094;2024-01-30T16:53:53;24.52;;;9.85;;
85243;SDS011;75643;56.928;41.094;2024-01-30T17:01:17;17.15;;;8.02;;
85243;SDS011;75643;56.928;41.094;2024-01-30T17:04:06;19.60;;;8.52;;
85243;SDS011;75643;56.928;41.094;2024-01-30T17:12:44;15.90;;;7.57;;
85243;SDS011;75643;56.928;41.094;2024-01-30T17:15:15;18.63;;;7.72;;
85243;SDS011;75643;56.928;41.094;2024-01-30T17:42:38;12.00;;;5.60;;
85243;SDS011;75643;56.928;41.094;2024-01-30T17:48:00;14.38;;;5.88;;